sensor_id;sensor_type;location;lat;lon;timestamp;P1;durP1;ratioP1;P2;durP2;ratioP2
30571;SDS011;17348;50.948;10.696;2022-09-29T00:00:56;6.30;;;4.03;;
30571;SDS011;17348;50.948;10.696;2022-09-29T00:03:58;5.07;;;3.27;;
30571;SDS011;17348;50.948;10.696;2022-09-29T00:07:00;6.27;;;4.00;;
30571;SDS011;17348;50.948;10.696;2022-09-29T00:10:03;6.70;;;3.70;;
30571;SDS011;17348;50.948;10.696;2022-09-29T00:13:05;7.27;;;3.57;;
30571;SDS011;17348;50.948;10.696;2022-09-29T00:16:12;5.53;;;3.53;;
30571;SDS011;17348;50.948;10.696;2022-09-29T00:19:14;7.63;;;3.63;;
30571;SDS011;17348;50.948;10.696;2022-09-29T00:22:16;7.90;;;4.00;;
30571;SDS011;17348;50.948;10.696;2022-09-29T00:25:19;6.10;;;3.80;;
30571;SDS011;17348;50.948;10.696;2022-09-29T00:28:21;9.67;;;4.03;;
30571;SDS011;17348;50.948;10.696;2022-09-29T00:31:25;5.80;;;3.80;;
30571;SDS011;17348;50.948;10.696;2022-09-29T00:34:30;7.83;;;3.70;;
30571;SDS011;17348;50.948;10.696;2022-09-29T00:37:32;5.87;;;4.03;;
30571;SDS011;17348;50.948;10.696;2022-09-29T00:40:34;5.93;;;3.83;;
30571;SDS011;17348;50.948;10.696;2022-09-29T00:43:46;7.30;;;3.70;;
30571;SDS011;17348;50.948;10.696;2022-09-29T00:46:53;7.47;;;4.17;;
30571;SDS011;17348;50.948;10.696;2022-09-29T00:49:58;7.53;;;3.77;;
30571;SDS011;17348;50.948;10.696;2022-09-29T00:53:02;6.27;;;3.93;;
30571;SDS011;17348;50.948;10.696;2022-09-29T00:56:11;9.63;;;4.20;;
30571;SDS011;17348;50.948;10.696;2022-09-29T00:59:16;7.07;;;3.77;;
30571;SDS011;17348;50.948;10.696;2022-09-29T01:02:29;7.13;;;3.97;;
30571;SDS011;17348;50.948;10.696;2022-09-29T01:05:35;9.27;;;4.70;;
30571;SDS011;17348;50.948;10.696;2022-09-29T01:08:41;6.60;;;4.17;;
30571;SDS011;17348;50.948;10.696;2022-09-29T01:11:48;9.63;;;4.33;;
30571;SDS011;17348;50.948;10.696;2022-09-29T01:14:52;8.73;;;4.53;;
30571;SDS011;17348;50.948;10.696;2022-09-29T01:17:57;10.57;;;4.47;;
30571;SDS011;17348;50.948;10.696;2022-09-29T01:21:01;6.07;;;3.90;;
30571;SDS011;17348;50.948;10.696;2022-09-29T01:27:58;6.70;;;4.37;;
30571;SDS011;17348;50.948;10.696;2022-09-29T01:31:30;6.63;;;4.17;;
30571;SDS011;17348;50.948;10.696;2022-09-29T01:34:39;6.13;;;4.35;;
30571;SDS011;17348;50.948;10.696;2022-09-29T01:37:50;7.50;;;3.67;;
30571;SDS011;17348;50.948;10.696;2022-09-29T01:41:04;6.80;;;3.93;;
30571;SDS011;17348;50.948;10.696;2022-09-29T01:44:13;8.27;;;3.70;;
30571;SDS011;17348;50.948;10.696;2022-09-29T01:47:24;7.37;;;3.70;;
30571;SDS011;17348;50.948;10.696;2022-09-29T01:50:31;7.93;;;4.00;;
30571;SDS011;17348;50.948;10.696;2022-09-29T01:53:36;6.13;;;3.97;;
30571;SDS011;17348;50.948;10.696;2022-09-29T01:56:42;8.20;;;4.00;;
30571;SDS011;17348;50.948;10.696;2022-09-29T01:59:49;6.80;;;3.67;;
30571;SDS011;17348;50.948;10.696;2022-09-29T02:02:59;5.53;;;3.60;;
30571;SDS011;17348;50.948;10.696;2022-09-29T02:09:14;6.23;;;3.80;;
30571;SDS011;17348;50.948;10.696;2022-09-29T02:12:20;12.97;;;3.67;;
30571;SDS011;17348;50.948;10.696;2022-09-29T02:15:27;6.33;;;3.87;;
30571;SDS011;17348;50.948;10.696;2022-09-29T02:18:38;6.23;;;4.07;;
30571;SDS011;17348;50.948;10.696;2022-09-29T02:21:49;7.33;;;4.40;;
30571;SDS011;17348;50.948;10.696;2022-09-29T02:24:54;6.07;;;3.97;;
30571;SDS011;17348;50.948;10.696;2022-09-29T02:27:59;9.13;;;4.43;;
30571;SDS011;17348;50.948;10.696;2022-09-29T02:31:01;8.20;;;4.80;;
30571;SDS011;17348;50.948;10.696;2022-09-29T02:34:06;6.63;;;4.10;;
30571;SDS011;17348;50.948;10.696;2022-09-29T02:37:14;5.53;;;3.97;;
30571;SDS011;17348;50.948;10.696;2022-09-29T02:40:28;8.57;;;4.03;;
30571;SDS011;17348;50.948;10.696;2022-09-29T02:43:44;6.90;;;3.97;;
30571;SDS011;17348;50.948;10.696;2022-09-29T02:47:03;7.90;;;3.57;;
30571;SDS011;17348;50.948;10.696;2022-09-29T02:50:23;6.77;;;4.23;;
30571;SDS011;17348;50.948;10.696;2022-09-29T02:53:46;8.27;;;3.93;;
30571;SDS011;17348;50.948;10.696;2022-09-29T02:57:01;5.77;;;3.50;;
30571;SDS011;17348;50.948;10.696;2022-09-29T03:00:14;6.50;;;3.90;;
30571;SDS011;17348;50.948;10.696;2022-09-29T03:03:18;9.00;;;3.97;;
30571;SDS011;17348;50.948;10.696;2022-09-29T03:06:21;5.67;;;3.60;;
30571;SDS011;17348;50.948;10.696;2022-09-29T03:09:24;6.57;;;3.33;;
30571;SDS011;17348;50.948;10.696;2022-09-29T03:12:26;9.10;;;3.53;;
30571;SDS011;17348;50.948;10.696;2022-09-29T03:15:28;6.20;;;3.40;;
30571;SDS011;17348;50.948;10.696;2022-09-29T03:18:30;5.57;;;3.70;;
30571;SDS011;17348;50.948;10.696;2022-09-29T03:21:34;5.93;;;3.70;;
30571;SDS011;17348;50.948;10.696;2022-09-29T03:24:36;8.93;;;3.83;;
30571;SDS011;17348;50.948;10.696;2022-09-29T03:27:38;6.53;;;4.20;;
30571;SDS011;17348;50.948;10.696;2022-09-29T03:30:41;6.47;;;3.67;;
30571;SDS011;17348;50.948;10.696;2022-09-29T03:33:46;10.97;;;4.17;;
30571;SDS011;17348;50.948;10.696;2022-09-29T03:36:50;5.80;;;4.00;;
30571;SDS011;17348;50.948;10.696;2022-09-29T03:39:52;6.87;;;4.50;;
30571;SDS011;17348;50.948;10.696;2022-09-29T03:42:54;6.07;;;4.17;;
30571;SDS011;17348;50.948;10.696;2022-09-29T03:45:56;6.47;;;3.33;;
30571;SDS011;17348;50.948;10.696;2022-09-29T03:48:59;9.77;;;4.40;;
30571;SDS011;17348;50.948;10.696;2022-09-29T03:52:02;6.93;;;4.07;;
30571;SDS011;17348;50.948;10.696;2022-09-29T03:55:05;6.13;;;3.70;;
30571;SDS011;17348;50.948;10.696;2022-09-29T03:58:08;5.50;;;3.60;;
30571;SDS011;17348;50.948;10.696;2022-09-29T04:01:10;6.77;;;4.23;;
30571;SDS011;17348;50.948;10.696;2022-09-29T04:04:14;6.40;;;3.63;;
30571;SDS011;17348;50.948;10.696;2022-09-29T04:07:18;4.33;;;3.27;;
30571;SDS011;17348;50.948;10.696;2022-09-29T04:10:20;9.37;;;3.93;;
30571;SDS011;17348;50.948;10.696;2022-09-29T04:13:23;12.03;;;4.53;;
30571;SDS011;17348;50.948;10.696;2022-09-29T04:16:25;5.00;;;3.50;;
30571;SDS011;17348;50.948;10.696;2022-09-29T04:19:27;6.37;;;3.80;;
30571;SDS011;17348;50.948;10.696;2022-09-29T04:22:30;8.00;;;4.37;;
30571;SDS011;17348;50.948;10.696;2022-09-29T04:25:33;6.30;;;3.93;;
30571;SDS011;17348;50.948;10.696;2022-09-29T04:28:35;8.73;;;4.20;;
30571;SDS011;17348;50.948;10.696;2022-09-29T04:31:38;6.27;;;3.93;;
30571;SDS011;17348;50.948;10.696;2022-09-29T04:34:45;5.43;;;3.83;;
30571;SDS011;17348;50.948;10.696;2022-09-29T04:37:49;4.73;;;3.47;;
30571;SDS011;17348;50.948;10.696;2022-09-29T04:40:56;7.20;;;4.13;;
30571;SDS011;17348;50.948;10.696;2022-09-29T04:43:59;6.20;;;4.20;;
30571;SDS011;17348;50.948;10.696;2022-09-29T04:47:02;14.63;;;4.07;;
30571;SDS011;17348;50.948;10.696;2022-09-29T04:50:05;8.10;;;4.97;;
30571;SDS011;17348;50.948;10.696;2022-09-29T04:53:10;5.87;;;4.27;;
30571;SDS011;17348;50.948;10.696;2022-09-29T04:56:13;7.90;;;4.53;;
30571;SDS011;17348;50.948;10.696;2022-09-29T04:59:15;7.10;;;4.17;;
30571;SDS011;17348;50.948;10.696;2022-09-29T05:02:17;9.27;;;3.90;;
30571;SDS011;17348;50.948;10.696;2022-09-29T05:05:20;13.23;;;4.17;;
30571;SDS011;17348;50.948;10.696;2022-09-29T05:08:23;10.77;;;4.17;;
30571;SDS011;17348;50.948;10.696;2022-09-29T05:11:25;10.33;;;4.50;;
30571;SDS011;17348;50.948;10.696;2022-09-29T05:14:28;12.30;;;4.10;;
30571;SDS011;17348;50.948;10.696;2022-09-29T05:17:30;11.03;;;4.57;;
30571;SDS011;17348;50.948;10.696;2022-09-29T05:20:32;11.10;;;4.60;;
30571;SDS011;17348;50.948;10.696;2022-09-29T05:23:36;17.07;;;4.60;;
30571;SDS011;17348;50.948;10.696;2022-09-29T05:26:38;15.27;;;4.73;;
30571;SDS011;17348;50.948;10.696;2022-09-29T05:29:40;16.90;;;4.50;;
30571;SDS011;17348;50.948;10.696;2022-09-29T05:32:42;11.83;;;4.43;;
30571;SDS011;17348;50.948;10.696;2022-09-29T05:35:45;6.93;;;3.80;;
30571;SDS011;17348;50.948;10.696;2022-09-29T05:38:49;6.23;;;3.87;;
30571;SDS011;17348;50.948;10.696;2022-09-29T05:41:51;6.83;;;4.23;;
30571;SDS011;17348;50.948;10.696;2022-09-29T05:44:53;8.70;;;4.25;;
30571;SDS011;17348;50.948;10.696;2022-09-29T05:47:56;8.50;;;4.67;;
30571;SDS011;17348;50.948;10.696;2022-09-29T05:50:59;10.97;;;4.83;;
30571;SDS011;17348;50.948;10.696;2022-09-29T05:54:09;15.60;;;5.33;;
30571;SDS011;17348;50.948;10.696;2022-09-29T05:57:11;9.63;;;4.90;;
30571;SDS011;17348;50.948;10.696;2022-09-29T06:00:14;9.23;;;5.27;;
30571;SDS011;17348;50.948;10.696;2022-09-29T06:03:16;10.70;;;4.63;;
30571;SDS011;17348;50.948;10.696;2022-09-29T06:06:19;12.83;;;5.77;;
30571;SDS011;17348;50.948;10.696;2022-09-29T06:09:24;8.47;;;5.20;;
30571;SDS011;17348;50.948;10.696;2022-09-29T06:12:26;7.93;;;4.93;;
30571;SDS011;17348;50.948;10.696;2022-09-29T06:15:28;8.30;;;5.07;;
30571;SDS011;17348;50.948;10.696;2022-09-29T06:18:30;7.40;;;5.13;;
30571;SDS011;17348;50.948;10.696;2022-09-29T06:21:33;8.43;;;5.10;;
30571;SDS011;17348;50.948;10.696;2022-09-29T06:24:38;13.87;;;5.40;;
30571;SDS011;17348;50.948;10.696;2022-09-29T06:27:40;8.03;;;4.37;;
30571;SDS011;17348;50.948;10.696;2022-09-29T06:30:43;14.00;;;6.00;;
30571;SDS011;17348;50.948;10.696;2022-09-29T06:33:46;12.63;;;6.43;;
30571;SDS011;17348;50.948;10.696;2022-09-29T06:36:48;11.80;;;6.83;;
30571;SDS011;17348;50.948;10.696;2022-09-29T06:40:10;10.07;;;6.13;;
30571;SDS011;17348;50.948;10.696;2022-09-29T06:43:12;13.60;;;6.83;;
30571;SDS011;17348;50.948;10.696;2022-09-29T06:46:15;13.93;;;6.03;;
30571;SDS011;17348;50.948;10.696;2022-09-29T06:49:17;10.03;;;6.07;;
30571;SDS011;17348;50.948;10.696;2022-09-29T06:52:19;12.03;;;6.20;;
30571;SDS011;17348;50.948;10.696;2022-09-29T06:55:23;13.73;;;6.40;;
30571;SDS011;17348;50.948;10.696;2022-09-29T06:58:25;13.63;;;6.70;;
30571;SDS011;17348;50.948;10.696;2022-09-29T07:01:28;11.87;;;7.00;;
30571;SDS011;17348;50.948;10.696;2022-09-29T07:04:30;12.43;;;6.63;;
30571;SDS011;17348;50.948;10.696;2022-09-29T07:07:33;11.77;;;6.87;;
30571;SDS011;17348;50.948;10.696;2022-09-29T07:10:36;13.47;;;6.73;;
30571;SDS011;17348;50.948;10.696;2022-09-29T07:13:39;11.68;;;6.88;;
30571;SDS011;17348;50.948;10.696;2022-09-29T07:16:41;12.70;;;6.00;;
30571;SDS011;17348;50.948;10.696;2022-09-29T07:19:43;12.13;;;6.35;;
30571;SDS011;17348;50.948;10.696;2022-09-29T07:22:46;13.20;;;5.97;;
30571;SDS011;17348;50.948;10.696;2022-09-29T07:25:50;11.60;;;6.63;;
30571;SDS011;17348;50.948;10.696;2022-09-29T07:28:52;15.95;;;7.53;;
30571;SDS011;17348;50.948;10.696;2022-09-29T07:31:54;13.85;;;7.28;;
30571;SDS011;17348;50.948;10.696;2022-09-29T07:34:56;11.25;;;6.90;;
30571;SDS011;17348;50.948;10.696;2022-09-29T07:37:59;12.27;;;6.97;;
30571;SDS011;17348;50.948;10.696;2022-09-29T07:41:03;14.10;;;6.82;;
30571;SDS011;17348;50.948;10.696;2022-09-29T07:44:07;13.57;;;7.23;;
30571;SDS011;17348;50.948;10.696;2022-09-29T07:47:09;14.07;;;7.15;;
30571;SDS011;17348;50.948;10.696;2022-09-29T07:50:11;8.77;;;5.55;;
30571;SDS011;17348;50.948;10.696;2022-09-29T07:53:16;10.55;;;6.38;;
30571;SDS011;17348;50.948;10.696;2022-09-29T07:56:20;12.15;;;6.75;;
30571;SDS011;17348;50.948;10.696;2022-09-29T07:59:24;14.75;;;5.57;;
30571;SDS011;17348;50.948;10.696;2022-09-29T08:02:26;10.55;;;6.20;;
30571;SDS011;17348;50.948;10.696;2022-09-29T08:05:29;16.33;;;5.70;;
30571;SDS011;17348;50.948;10.696;2022-09-29T08:08:33;10.68;;;6.00;;
30571;SDS011;17348;50.948;10.696;2022-09-29T08:11:38;9.93;;;5.35;;
30571;SDS011;17348;50.948;10.696;2022-09-29T08:14:41;11.13;;;5.47;;
30571;SDS011;17348;50.948;10.696;2022-09-29T08:17:44;8.95;;;5.68;;
30571;SDS011;17348;50.948;10.696;2022-09-29T08:20:46;7.82;;;4.60;;
30571;SDS011;17348;50.948;10.696;2022-09-29T08:23:48;8.63;;;4.73;;
30571;SDS011;17348;50.948;10.696;2022-09-29T08:26:54;8.90;;;4.82;;
30571;SDS011;17348;50.948;10.696;2022-09-29T08:29:57;7.05;;;4.40;;
30571;SDS011;17348;50.948;10.696;2022-09-29T08:32:59;11.80;;;5.28;;
30571;SDS011;17348;50.948;10.696;2022-09-29T08:36:03;11.55;;;4.65;;
30571;SDS011;17348;50.948;10.696;2022-09-29T08:39:13;11.20;;;4.50;;
30571;SDS011;17348;50.948;10.696;2022-09-29T08:42:20;12.07;;;5.65;;
30571;SDS011;17348;50.948;10.696;2022-09-29T08:45:28;10.75;;;4.95;;
30571;SDS011;17348;50.948;10.696;2022-09-29T08:48:34;7.47;;;4.50;;
30571;SDS011;17348;50.948;10.696;2022-09-29T08:51:42;11.88;;;5.05;;
30571;SDS011;17348;50.948;10.696;2022-09-29T08:54:49;7.07;;;3.72;;
30571;SDS011;17348;50.948;10.696;2022-09-29T08:57:57;7.45;;;4.38;;
30571;SDS011;17348;50.948;10.696;2022-09-29T09:01:06;9.70;;;3.88;;
30571;SDS011;17348;50.948;10.696;2022-09-29T09:04:25;6.57;;;3.75;;
30571;SDS011;17348;50.948;10.696;2022-09-29T09:07:40;7.75;;;3.78;;
30571;SDS011;17348;50.948;10.696;2022-09-29T09:10:52;10.55;;;3.10;;
30571;SDS011;17348;50.948;10.696;2022-09-29T09:14:06;4.63;;;3.08;;
30571;SDS011;17348;50.948;10.696;2022-09-29T09:17:23;8.23;;;3.17;;
30571;SDS011;17348;50.948;10.696;2022-09-29T09:20:38;7.97;;;3.95;;
30571;SDS011;17348;50.948;10.696;2022-09-29T09:23:48;7.15;;;3.30;;
30571;SDS011;17348;50.948;10.696;2022-09-29T09:26:55;7.03;;;3.50;;
30571;SDS011;17348;50.948;10.696;2022-09-29T09:30:02;9.48;;;3.55;;
30571;SDS011;17348;50.948;10.696;2022-09-29T09:33:09;10.32;;;3.65;;
30571;SDS011;17348;50.948;10.696;2022-09-29T09:36:18;7.95;;;3.67;;
30571;SDS011;17348;50.948;10.696;2022-09-29T09:39:25;4.88;;;3.25;;
30571;SDS011;17348;50.948;10.696;2022-09-29T09:42:32;5.90;;;3.47;;
30571;SDS011;17348;50.948;10.696;2022-09-29T09:45:41;6.38;;;3.03;;
30571;SDS011;17348;50.948;10.696;2022-09-29T09:48:51;5.83;;;3.97;;
30571;SDS011;17348;50.948;10.696;2022-09-29T09:52:01;7.05;;;3.67;;
30571;SDS011;17348;50.948;10.696;2022-09-29T09:55:13;5.95;;;3.40;;
30571;SDS011;17348;50.948;10.696;2022-09-29T09:58:26;6.68;;;3.35;;
30571;SDS011;17348;50.948;10.696;2022-09-29T10:01:41;6.35;;;3.40;;
30571;SDS011;17348;50.948;10.696;2022-09-29T10:04:44;13.32;;;3.90;;
30571;SDS011;17348;50.948;10.696;2022-09-29T10:07:50;5.97;;;3.28;;
30571;SDS011;17348;50.948;10.696;2022-09-29T10:10:53;10.07;;;2.75;;
30571;SDS011;17348;50.948;10.696;2022-09-29T10:13:57;8.35;;;3.30;;
30571;SDS011;17348;50.948;10.696;2022-09-29T10:17:04;8.48;;;3.33;;
30571;SDS011;17348;50.948;10.696;2022-09-29T10:20:09;10.32;;;3.63;;
30571;SDS011;17348;50.948;10.696;2022-09-29T10:23:25;8.18;;;3.15;;
30571;SDS011;17348;50.948;10.696;2022-09-29T10:26:32;7.70;;;2.47;;
30571;SDS011;17348;50.948;10.696;2022-09-29T10:29:38;4.22;;;2.33;;
30571;SDS011;17348;50.948;10.696;2022-09-29T10:32:43;6.95;;;3.45;;
30571;SDS011;17348;50.948;10.696;2022-09-29T10:35:47;6.00;;;2.80;;
30571;SDS011;17348;50.948;10.696;2022-09-29T10:38:52;4.70;;;2.38;;
30571;SDS011;17348;50.948;10.696;2022-09-29T10:41:55;6.45;;;2.30;;
30571;SDS011;17348;50.948;10.696;2022-09-29T10:45:00;8.60;;;2.58;;
30571;SDS011;17348;50.948;10.696;2022-09-29T10:48:12;2.10;;;1.85;;
30571;SDS011;17348;50.948;10.696;2022-09-29T10:51:17;4.68;;;2.35;;
30571;SDS011;17348;50.948;10.696;2022-09-29T10:54:25;5.78;;;2.53;;
30571;SDS011;17348;50.948;10.696;2022-09-29T10:57:30;3.40;;;2.55;;
30571;SDS011;17348;50.948;10.696;2022-09-29T11:00:35;8.68;;;3.13;;
30571;SDS011;17348;50.948;10.696;2022-09-29T11:03:44;7.22;;;2.60;;
30571;SDS011;17348;50.948;10.696;2022-09-29T11:06:50;2.45;;;1.92;;
30571;SDS011;17348;50.948;10.696;2022-09-29T11:09:53;3.67;;;2.17;;
30571;SDS011;17348;50.948;10.696;2022-09-29T11:12:56;7.75;;;2.38;;
30571;SDS011;17348;50.948;10.696;2022-09-29T11:16:02;8.20;;;2.80;;
30571;SDS011;17348;50.948;10.696;2022-09-29T11:19:08;6.97;;;2.60;;
30571;SDS011;17348;50.948;10.696;2022-09-29T11:22:26;10.18;;;2.42;;
30571;SDS011;17348;50.948;10.696;2022-09-29T11:25:43;6.90;;;2.90;;
30571;SDS011;17348;50.948;10.696;2022-09-29T11:29:00;5.70;;;2.72;;
30571;SDS011;17348;50.948;10.696;2022-09-29T11:32:19;10.25;;;2.53;;
30571;SDS011;17348;50.948;10.696;2022-09-29T11:35:44;9.10;;;2.75;;
30571;SDS011;17348;50.948;10.696;2022-09-29T11:39:00;4.82;;;3.28;;
30571;SDS011;17348;50.948;10.696;2022-09-29T11:42:16;4.00;;;2.60;;
30571;SDS011;17348;50.948;10.696;2022-09-29T11:45:28;6.65;;;3.22;;
30571;SDS011;17348;50.948;10.696;2022-09-29T11:48:38;10.80;;;3.20;;
30571;SDS011;17348;50.948;10.696;2022-09-29T11:51:58;6.75;;;2.83;;
30571;SDS011;17348;50.948;10.696;2022-09-29T11:55:16;5.50;;;3.05;;
30571;SDS011;17348;50.948;10.696;2022-09-29T11:58:35;4.53;;;2.55;;
30571;SDS011;17348;50.948;10.696;2022-09-29T12:01:49;3.95;;;2.38;;
30571;SDS011;17348;50.948;10.696;2022-09-29T12:05:02;4.07;;;2.70;;
30571;SDS011;17348;50.948;10.696;2022-09-29T12:08:15;6.68;;;3.33;;
30571;SDS011;17348;50.948;10.696;2022-09-29T12:11:29;5.40;;;2.67;;
30571;SDS011;17348;50.948;10.696;2022-09-29T12:14:44;4.95;;;2.45;;
30571;SDS011;17348;50.948;10.696;2022-09-29T12:17:58;9.15;;;3.40;;
30571;SDS011;17348;50.948;10.696;2022-09-29T12:21:04;4.35;;;2.53;;
30571;SDS011;17348;50.948;10.696;2022-09-29T12:24:12;14.35;;;2.90;;
30571;SDS011;17348;50.948;10.696;2022-09-29T12:27:17;4.75;;;2.45;;
30571;SDS011;17348;50.948;10.696;2022-09-29T12:30:24;3.47;;;2.50;;
30571;SDS011;17348;50.948;10.696;2022-09-29T12:33:30;9.38;;;2.65;;
30571;SDS011;17348;50.948;10.696;2022-09-29T12:36:39;4.50;;;2.28;;
30571;SDS011;17348;50.948;10.696;2022-09-29T12:39:54;8.25;;;2.45;;
30571;SDS011;17348;50.948;10.696;2022-09-29T12:43:03;2.83;;;1.95;;
30571;SDS011;17348;50.948;10.696;2022-09-29T12:46:12;5.10;;;1.98;;
30571;SDS011;17348;50.948;10.696;2022-09-29T12:49:21;4.53;;;2.15;;
30571;SDS011;17348;50.948;10.696;2022-09-29T12:52:30;5.00;;;1.67;;
30571;SDS011;17348;50.948;10.696;2022-09-29T12:58:49;4.18;;;2.10;;
30571;SDS011;17348;50.948;10.696;2022-09-29T13:01:55;7.53;;;1.88;;
30571;SDS011;17348;50.948;10.696;2022-09-29T13:05:01;6.88;;;2.17;;
30571;SDS011;17348;50.948;10.696;2022-09-29T13:11:54;4.53;;;2.28;;
30571;SDS011;17348;50.948;10.696;2022-09-29T13:15:22;4.03;;;1.95;;
30571;SDS011;17348;50.948;10.696;2022-09-29T13:18:43;4.22;;;2.22;;
30571;SDS011;17348;50.948;10.696;2022-09-29T13:22:16;7.35;;;2.50;;
30571;SDS011;17348;50.948;10.696;2022-09-29T13:25:27;4.93;;;2.00;;
30571;SDS011;17348;50.948;10.696;2022-09-29T13:28:38;6.93;;;3.00;;
30571;SDS011;17348;50.948;10.696;2022-09-29T13:31:44;2.88;;;1.50;;
30571;SDS011;17348;50.948;10.696;2022-09-29T13:34:51;3.75;;;2.00;;
30571;SDS011;17348;50.948;10.696;2022-09-29T13:37:56;5.40;;;2.58;;
30571;SDS011;17348;50.948;10.696;2022-09-29T13:41:13;7.72;;;2.38;;
30571;SDS011;17348;50.948;10.696;2022-09-29T13:44:22;6.65;;;2.25;;
30571;SDS011;17348;50.948;10.696;2022-09-29T13:47:30;7.55;;;2.00;;
30571;SDS011;17348;50.948;10.696;2022-09-29T13:50:38;3.15;;;2.08;;
30571;SDS011;17348;50.948;10.696;2022-09-29T13:53:41;5.90;;;2.22;;
30571;SDS011;17348;50.948;10.696;2022-09-29T13:56:45;7.53;;;2.47;;
30571;SDS011;17348;50.948;10.696;2022-09-29T14:03:27;5.78;;;2.17;;
30571;SDS011;17348;50.948;10.696;2022-09-29T14:06:33;25.33;;;9.73;;
30571;SDS011;17348;50.948;10.696;2022-09-29T14:09:47;6.82;;;2.45;;
30571;SDS011;17348;50.948;10.696;2022-09-29T14:12:52;4.55;;;2.17;;
30571;SDS011;17348;50.948;10.696;2022-09-29T14:16:06;3.35;;;1.80;;
30571;SDS011;17348;50.948;10.696;2022-09-29T14:19:21;3.55;;;2.03;;
30571;SDS011;17348;50.948;10.696;2022-09-29T14:29:40;5.13;;;1.95;;
30571;SDS011;17348;50.948;10.696;2022-09-29T14:32:52;8.85;;;2.05;;
30571;SDS011;17348;50.948;10.696;2022-09-29T14:36:01;8.63;;;1.85;;
30571;SDS011;17348;50.948;10.696;2022-09-29T14:39:05;4.35;;;2.15;;
30571;SDS011;17348;50.948;10.696;2022-09-29T14:42:11;6.50;;;2.88;;
30571;SDS011;17348;50.948;10.696;2022-09-29T14:45:17;6.15;;;1.30;;
30571;SDS011;17348;50.948;10.696;2022-09-29T14:48:41;14.27;;;2.17;;
30571;SDS011;17348;50.948;10.696;2022-09-29T14:52:14;3.35;;;1.70;;
30571;SDS011;17348;50.948;10.696;2022-09-29T14:55:24;4.75;;;3.22;;
30571;SDS011;17348;50.948;10.696;2022-09-29T14:58:41;2.22;;;1.70;;
30571;SDS011;17348;50.948;10.696;2022-09-29T15:02:05;13.68;;;1.77;;
30571;SDS011;17348;50.948;10.696;2022-09-29T15:05:25;4.13;;;2.08;;
30571;SDS011;17348;50.948;10.696;2022-09-29T15:08:29;10.13;;;2.72;;
30571;SDS011;17348;50.948;10.696;2022-09-29T15:11:34;6.35;;;2.13;;
30571;SDS011;17348;50.948;10.696;2022-09-29T15:14:37;10.00;;;1.77;;
30571;SDS011;17348;50.948;10.696;2022-09-29T15:17:42;5.88;;;2.15;;
30571;SDS011;17348;50.948;10.696;2022-09-29T15:20:57;4.45;;;2.20;;
30571;SDS011;17348;50.948;10.696;2022-09-29T15:24:08;2.35;;;1.75;;
30571;SDS011;17348;50.948;10.696;2022-09-29T15:27:25;4.72;;;1.52;;
30571;SDS011;17348;50.948;10.696;2022-09-29T15:30:27;5.30;;;2.50;;
30571;SDS011;17348;50.948;10.696;2022-09-29T15:33:30;5.93;;;2.80;;
30571;SDS011;17348;50.948;10.696;2022-09-29T15:36:38;5.05;;;2.55;;
30571;SDS011;17348;50.948;10.696;2022-09-29T15:39:43;7.32;;;2.47;;
30571;SDS011;17348;50.948;10.696;2022-09-29T15:42:48;15.38;;;6.68;;
30571;SDS011;17348;50.948;10.696;2022-09-29T15:45:52;19.48;;;7.75;;
30571;SDS011;17348;50.948;10.696;2022-09-29T15:49:05;17.17;;;6.85;;
30571;SDS011;17348;50.948;10.696;2022-09-29T15:52:18;7.57;;;3.70;;
30571;SDS011;17348;50.948;10.696;2022-09-29T15:55:23;5.88;;;3.00;;
30571;SDS011;17348;50.948;10.696;2022-09-29T15:58:39;4.50;;;2.90;;
30571;SDS011;17348;50.948;10.696;2022-09-29T16:01:44;5.82;;;3.58;;
30571;SDS011;17348;50.948;10.696;2022-09-29T16:04:47;5.40;;;3.17;;
30571;SDS011;17348;50.948;10.696;2022-09-29T16:07:55;4.45;;;2.97;;
30571;SDS011;17348;50.948;10.696;2022-09-29T16:11:03;5.55;;;2.50;;
30571;SDS011;17348;50.948;10.696;2022-09-29T16:14:09;8.32;;;3.13;;
30571;SDS011;17348;50.948;10.696;2022-09-29T16:17:12;6.78;;;3.47;;
30571;SDS011;17348;50.948;10.696;2022-09-29T16:20:15;7.07;;;3.80;;
30571;SDS011;17348;50.948;10.696;2022-09-29T16:23:26;9.02;;;4.30;;
30571;SDS011;17348;50.948;10.696;2022-09-29T16:26:35;14.75;;;5.97;;
30571;SDS011;17348;50.948;10.696;2022-09-29T16:29:38;11.75;;;5.03;;
30571;SDS011;17348;50.948;10.696;2022-09-29T16:32:40;3.40;;;2.70;;
30571;SDS011;17348;50.948;10.696;2022-09-29T16:35:44;5.32;;;2.55;;
30571;SDS011;17348;50.948;10.696;2022-09-29T16:38:58;3.28;;;2.05;;
30571;SDS011;17348;50.948;10.696;2022-09-29T16:42:01;3.83;;;2.03;;
30571;SDS011;17348;50.948;10.696;2022-09-29T16:45:06;4.80;;;2.20;;
30571;SDS011;17348;50.948;10.696;2022-09-29T16:48:16;6.53;;;2.20;;
30571;SDS011;17348;50.948;10.696;2022-09-29T16:51:20;10.35;;;2.67;;
30571;SDS011;17348;50.948;10.696;2022-09-29T16:54:26;11.45;;;3.88;;
30571;SDS011;17348;50.948;10.696;2022-09-29T16:57:31;12.05;;;5.13;;
30571;SDS011;17348;50.948;10.696;2022-09-29T17:00:34;8.98;;;4.47;;
30571;SDS011;17348;50.948;10.696;2022-09-29T17:03:37;11.60;;;4.63;;
30571;SDS011;17348;50.948;10.696;2022-09-29T17:06:42;14.85;;;4.97;;
30571;SDS011;17348;50.948;10.696;2022-09-29T17:09:48;7.90;;;3.58;;
30571;SDS011;17348;50.948;10.696;2022-09-29T17:12:54;6.97;;;3.75;;
30571;SDS011;17348;50.948;10.696;2022-09-29T17:15:56;5.05;;;2.90;;
30571;SDS011;17348;50.948;10.696;2022-09-29T17:18:59;3.60;;;2.50;;
30571;SDS011;17348;50.948;10.696;2022-09-29T17:22:01;3.13;;;2.13;;
30571;SDS011;17348;50.948;10.696;2022-09-29T17:25:08;10.95;;;3.50;;
30571;SDS011;17348;50.948;10.696;2022-09-29T17:28:11;9.00;;;3.08;;
30571;SDS011;17348;50.948;10.696;2022-09-29T17:31:15;11.10;;;4.32;;
30571;SDS011;17348;50.948;10.696;2022-09-29T17:34:17;8.70;;;4.80;;
30571;SDS011;17348;50.948;10.696;2022-09-29T17:37:21;7.72;;;4.03;;
30571;SDS011;17348;50.948;10.696;2022-09-29T17:40:26;16.35;;;4.78;;
30571;SDS011;17348;50.948;10.696;2022-09-29T17:43:33;6.27;;;3.73;;
30571;SDS011;17348;50.948;10.696;2022-09-29T17:46:36;10.60;;;4.93;;
30571;SDS011;17348;50.948;10.696;2022-09-29T17:49:38;13.57;;;5.93;;
30571;SDS011;17348;50.948;10.696;2022-09-29T17:52:41;18.33;;;6.50;;
30571;SDS011;17348;50.948;10.696;2022-09-29T17:55:45;12.88;;;6.38;;
30571;SDS011;17348;50.948;10.696;2022-09-29T17:58:49;10.63;;;4.25;;
30571;SDS011;17348;50.948;10.696;2022-09-29T18:01:51;9.27;;;3.88;;
30571;SDS011;17348;50.948;10.696;2022-09-29T18:04:53;9.27;;;4.20;;
30571;SDS011;17348;50.948;10.696;2022-09-29T18:07:55;12.55;;;4.97;;
30571;SDS011;17348;50.948;10.696;2022-09-29T18:11:00;18.75;;;6.10;;
30571;SDS011;17348;50.948;10.696;2022-09-29T18:14:02;16.98;;;6.88;;
30571;SDS011;17348;50.948;10.696;2022-09-29T18:17:05;14.18;;;5.53;;
30571;SDS011;17348;50.948;10.696;2022-09-29T18:20:12;11.18;;;5.95;;
30571;SDS011;17348;50.948;10.696;2022-09-29T18:23:16;14.18;;;6.43;;
30571;SDS011;17348;50.948;10.696;2022-09-29T18:26:21;13.20;;;6.40;;
30571;SDS011;17348;50.948;10.696;2022-09-29T18:29:23;17.42;;;6.72;;
30571;SDS011;17348;50.948;10.696;2022-09-29T18:32:26;14.27;;;7.13;;
30571;SDS011;17348;50.948;10.696;2022-09-29T18:35:28;21.67;;;10.02;;
30571;SDS011;17348;50.948;10.696;2022-09-29T18:38:32;32.88;;;14.05;;
30571;SDS011;17348;50.948;10.696;2022-09-29T18:41:36;29.50;;;12.50;;
30571;SDS011;17348;50.948;10.696;2022-09-29T18:44:38;19.40;;;8.32;;
30571;SDS011;17348;50.948;10.696;2022-09-29T18:47:41;14.90;;;7.28;;